メインページ
METAR-TAF:

METAR-TAF

空港 :

クウェート, クウェート

クウェート国際空港

緯度: 29-13N, 経度: 047-59E, 海抜: 55m

現時点の気象観測

当レポートは21分前の06:00(UTC)に作成
南/南西の風 4kt
気温 13°C
湿度 30%
気圧 1018 hPa
視程10km以上
1,500メートル以下は雲なし、積乱雲なし

METAR: OKBK 140600Z 20004KT CAVOK 13/M04 Q1018 NOSIG

時間: 09:21 (06:21 UTC)

予報

当レポートは13時間36分前の16:45(UTC)に作成
予報は12日の 18時(UTC)から 13日の 24時(UTC)まで有効
北西の風 8kt、最大18ktの突風を伴う
視程: 7000m
晴天

TAF: OKBK 121645Z 1218/1324 32008G18KT 7000 SKC

4,000以上の空港の気象観測と天気予報(METAR報とTAF報)

利用可能な観測所は地図上に黄色い丸と赤い丸で示す。

丸の上にカーソルを重ねると観測所名を参照できる。

次にクリックすると気象観測と天気予報を参照できる。

マップの切り替え:黒色「×」印の緑ボタンをクリックして拡大、「-」印の緑ボタンをクリックして縮小、緑色の三角印をクリックして隣りの地図に切り替え


METAR-TAF: